Nearby METAR Reports

 

KFRG - , , USA
Distance from station: SSW 12mi, 20km
Updated: 06/19/2024 6:53pm
Clear
Clear
 Wind from SSW
Wind: SSW 14 mph , 22 km/h
Temperature: 77°F , 25°C
Dew Point: 64°F , 18°C
Humidity: 65%
Barometer: 30.34 inHg , 1027.4 hPa
Clouds: Clear
Visibility: 10 miles , 16 km
2024/06/19 22:53 KFRG 192253Z 21012KT 10SM CLR 25/18 A3034 RMK AO2 SLP273 T02500178
KISP - , , USA
Distance from station: ESE 14mi, 23km
Updated: 06/19/2024 6:56pm
Mostly cloudy
Mostly cloudy
 Wind from SSW
Wind: SSW 12 mph , 19 km/h
Temperature: 75°F , 24°C
Dew Point: 63°F , 17°C
Humidity: 65%
Barometer: 30.33 inHg , 1027.1 hPa
Clouds: Mostly cloudy
Visibility: 10 miles , 16 km
Cloud details: Mostly cloudy 25000 ft
2024/06/19 22:56 KISP 192256Z 21010KT 10SM BKN250 24/17 A3033 RMK AO2 SLP270 T02440172
 
KBDR - , , USA
Distance from station: NNE 21mi, 34km
Updated: 06/19/2024 6:52pm
Clear
Clear
 Wind from SSW
Wind: SSW 13 mph , 20 km/h
Temperature: 79°F , 26°C
Dew Point: 64°F , 18°C
Humidity: 61%
Barometer: 30.32 inHg , 1026.8 hPa
Clouds: Clear
Visibility: 10 miles , 16 km
2024/06/19 22:52 KBDR 192252Z 20011KT 10SM CLR 26/18 A3032 RMK AO2 SLP266 T02610178
KHPN - , , USA
Distance from station: WNW 22mi, 35km
Updated: 06/19/2024 6:56pm
Clear
Clear
 Wind from S
Wind: S 7 mph , 11 km/h, Gust: 17 mph , 28 km/h
Temperature: 79°F , 26°C
Dew Point: 64°F , 18°C
Humidity: 61%
Barometer: 30.32 inHg , 1026.8 hPa
Clouds: Clear
Visibility: 10 miles , 16 km
2024/06/19 22:56 KHPN 192256Z 17006G15KT 10SM CLR 26/18 A3032 RMK AO2 SLP262 T02610178
 
KHWV - , , USA
Distance from station: ESE 26mi, 41km
Updated: 06/19/2024 6:56pm
Clear
Clear
 Wind from SSW
Wind: SSW 13 mph , 20 km/h, Gust: 18 mph , 30 km/h
Temperature: 77°F , 25°C
Dew Point: 63°F , 17°C
Humidity: 61%
Barometer: 30.34 inHg , 1027.4 hPa
Clouds: Clear
Visibility: 10 miles , 16 km
2024/06/19 22:56 KHWV 192256Z AUTO 20011G16KT 10SM CLR 25/17 A3034 RMK AO2 SLP274 T02500172
KJFK - , , USA
Distance from station: SW 29mi, 46km
Updated: 06/19/2024 6:51pm
Partly cloudy
Partly cloudy
 Wind from S
Wind: S 17 mph , 28 km/h, Gust: 28 mph , 44 km/h
Temperature: 75°F , 24°C
Dew Point: 64°F , 18°C
Humidity: 69%
Barometer: 30.32 inHg , 1026.8 hPa
Clouds: Partly cloudy
Visibility: 10 miles , 16 km
Cloud details: Few Clouds 5000 ft
Partly cloudy 25000 ft
2024/06/19 22:51 KJFK 192251Z 19015G24KT 10SM FEW050 SCT250 24/18 A3032 RMK AO2 PK WND 18027/2212 SLP272 T02440183 $
 
KLGA - , , USA
Distance from station: WSW 29mi, 47km
Updated: 06/19/2024 6:51pm
Mostly cloudy
Mostly cloudy
 Wind from SSE
Wind: SSE 14 mph , 22 km/h
Temperature: 81°F , 27°C
Heat Index: 81°F , 27°C
Dew Point: 55°F , 13°C
Humidity: 42%
Barometer: 30.30 inHg , 1026.1 hPa
Clouds: Mostly cloudy
Visibility: 10 miles , 16 km
Cloud details: Few Clouds 5000 ft
Few Clouds 20000 ft
Mostly cloudy 25000 ft
2024/06/19 22:51 KLGA 192251Z 16012KT 10SM FEW050 FEW200 BKN250 27/13 A3030 RMK AO2 SLP260 T02720133